createdAt,value
2018-02-17T00:01:17.317Z,96132
2018-02-17T00:03:45.380Z,96127
2018-02-17T00:06:13.433Z,96128
2018-02-17T00:08:41.506Z,96113
2018-02-17T00:11:10.350Z,96124
2018-02-17T00:13:38.431Z,96113
2018-02-17T00:16:06.830Z,96132
2018-02-17T00:18:34.902Z,96108
2018-02-17T00:21:03.002Z,96102
2018-02-17T00:23:31.078Z,96112
2018-02-17T00:25:59.142Z,96112
2018-02-17T00:28:27.279Z,96098
2018-02-17T00:30:55.403Z,96126
2018-02-17T00:33:23.573Z,96104
2018-02-17T00:35:52.472Z,96105
2018-02-17T00:38:20.562Z,96093
2018-02-17T00:40:48.621Z,96099
2018-02-17T00:43:16.701Z,96101
2018-02-17T00:45:44.766Z,96092
2018-02-17T00:48:12.843Z,96084
2018-02-17T00:50:40.909Z,96091
2018-02-17T00:53:08.978Z,96088
2018-02-17T00:55:37.977Z,96092
2018-02-17T00:58:07.173Z,96100
2018-02-17T01:00:35.270Z,96083
2018-02-17T01:03:03.374Z,96080
2018-02-17T01:05:31.448Z,96082
2018-02-17T01:07:59.832Z,96096
2018-02-17T01:10:27.910Z,96077
2018-02-17T01:12:56.094Z,96091
2018-02-17T01:15:24.170Z,96096
2018-02-17T01:17:53.037Z,96093
2018-02-17T01:20:21.107Z,96088
2018-02-17T01:22:49.225Z,96082
2018-02-17T01:25:17.398Z,96067
2018-02-17T01:27:45.473Z,96068
2018-02-17T01:30:13.551Z,96059
2018-02-17T01:32:41.639Z,96061
2018-02-17T01:35:09.699Z,96063
2018-02-17T01:37:37.779Z,96067
2018-02-17T01:40:05.864Z,96061
2018-02-17T01:42:33.938Z,96050
2018-02-17T01:45:01.999Z,96053
2018-02-17T01:47:30.090Z,96042
2018-02-17T01:49:58.162Z,96045
2018-02-17T01:52:26.351Z,96038
2018-02-17T01:54:54.402Z,96015
2018-02-17T01:57:22.469Z,96022
2018-02-17T01:59:50.578Z,96025
2018-02-17T02:02:18.699Z,96023
2018-02-17T02:04:47.534Z,96008
2018-02-17T02:07:15.602Z,96017
2018-02-17T02:09:43.666Z,96018
2018-02-17T02:12:11.802Z,96006
2018-02-17T02:14:39.878Z,95995
2018-02-17T02:17:08.057Z,96000
2018-02-17T02:19:36.126Z,95970
2018-02-17T02:22:04.218Z,95982
2018-02-17T02:24:32.370Z,95990
2018-02-17T02:27:00.438Z,95976
2018-02-17T02:29:28.537Z,95985
2018-02-17T02:31:56.610Z,95961
2018-02-17T02:34:24.693Z,95972
2018-02-17T02:36:52.763Z,95960
2018-02-17T02:39:20.935Z,95964
2018-02-17T02:41:49.107Z,95962
2018-02-17T02:44:17.175Z,95959
2018-02-17T02:46:45.261Z,95961
2018-02-17T02:49:13.331Z,95940
2018-02-17T02:51:41.425Z,95941
2018-02-17T02:54:09.478Z,95950
2018-02-17T02:56:38.411Z,95920
2018-02-17T02:59:06.467Z,95929
2018-02-17T03:01:34.532Z,95916
2018-02-17T03:04:02.597Z,95909
2018-02-17T03:06:30.658Z,95905
2018-02-17T03:08:58.773Z,95911
2018-02-17T03:11:26.838Z,95897
2018-02-17T03:13:54.895Z,95887
2018-02-17T03:16:22.980Z,95889
2018-02-17T03:18:51.075Z,95886
2018-02-17T03:21:19.144Z,95885
2018-02-17T03:23:47.198Z,95873
2018-02-17T03:26:15.270Z,95864
2018-02-17T03:28:43.329Z,95854
2018-02-17T03:31:11.388Z,95851
2018-02-17T03:33:40.214Z,95863
2018-02-17T03:36:08.834Z,95864
2018-02-17T03:38:36.914Z,95853
2018-02-17T03:41:04.970Z,95853
2018-02-17T03:43:33.038Z,95854
2018-02-17T03:46:01.093Z,95850
2018-02-17T03:48:29.923Z,95844
2018-02-17T03:50:58.742Z,95828
2018-02-17T03:53:28.738Z,95819
2018-02-17T03:55:56.794Z,95831
2018-02-17T03:58:24.907Z,95825
2018-02-17T04:00:52.966Z,95837
2018-02-17T04:03:21.059Z,95834
2018-02-17T04:05:49.126Z,95826
2018-02-17T04:08:17.191Z,95834
2018-02-17T04:10:45.246Z,95835
2018-02-17T04:13:13.316Z,95832
2018-02-17T04:15:41.362Z,95849
2018-02-17T04:18:10.201Z,95848
2018-02-17T04:20:39.374Z,95847
2018-02-17T04:23:07.505Z,95859
2018-02-17T04:25:35.566Z,95840
2018-02-17T04:28:03.625Z,95834
2018-02-17T04:30:31.696Z,95830
2018-02-17T04:32:59.797Z,95803
2018-02-17T04:35:27.878Z,95823
2018-02-17T04:37:55.943Z,95802
2018-02-17T04:40:29.422Z,95806
2018-02-17T04:43:18.239Z,95791
2018-02-17T04:45:56.962Z,95784
2018-02-17T04:48:28.190Z,95785
2018-02-17T04:51:08.490Z,95782
2018-02-17T04:53:40.492Z,95771
2018-02-17T04:56:25.355Z,95772
2018-02-17T04:58:58.793Z,95770
2018-02-17T05:01:33.892Z,95766
2018-02-17T05:04:17.684Z,95767
2018-02-17T05:06:51.695Z,95761
2018-02-17T05:09:19.747Z,95749
2018-02-17T05:11:48.565Z,95729
2018-02-17T05:17:24.662Z,95734
2018-02-17T05:19:52.741Z,95730
2018-02-17T05:25:38.837Z,95707
2018-02-17T05:28:06.898Z,95709
2018-02-17T05:30:35.607Z,95706
2018-02-17T05:33:09.258Z,95697
2018-02-17T05:35:41.813Z,95694
2018-02-17T05:38:10.261Z,95684
2018-02-17T05:40:38.794Z,95674
2018-02-17T05:43:07.615Z,95689
2018-02-17T05:48:45.297Z,95687
2018-02-17T05:51:13.377Z,95687
2018-02-17T05:53:41.453Z,95701
2018-02-17T05:56:10.512Z,95699
2018-02-17T05:58:38.574Z,95692
2018-02-17T06:01:06.628Z,95684
2018-02-17T06:03:34.726Z,95683
2018-02-17T06:06:02.778Z,95684
2018-02-17T06:08:31.602Z,95680
2018-02-17T06:10:59.664Z,95655
2018-02-17T06:13:27.735Z,95662
2018-02-17T06:15:55.819Z,95658
2018-02-17T06:18:23.890Z,95660
2018-02-17T06:20:52.475Z,95651
2018-02-17T06:23:20.534Z,95653
2018-02-17T06:25:48.617Z,95663
2018-02-17T06:28:16.691Z,95649
2018-02-17T06:30:44.767Z,95634
2018-02-17T06:33:12.837Z,95627
2018-02-17T06:35:42.340Z,95641
2018-02-17T06:38:10.758Z,95631
2018-02-17T06:40:38.923Z,95649
2018-02-17T06:43:07.096Z,95641
2018-02-17T06:45:35.174Z,95619
2018-02-17T06:48:03.259Z,95615
2018-02-17T06:50:31.439Z,95618
2018-02-17T06:52:59.502Z,95618
2018-02-17T06:55:27.562Z,95605
2018-02-17T06:57:55.630Z,95582
2018-02-17T07:00:23.734Z,95580
2018-02-17T07:02:53.244Z,95577
2018-02-17T07:05:21.319Z,95556
2018-02-17T07:07:49.394Z,95556
2018-02-17T07:10:17.466Z,95575
2018-02-17T07:12:45.550Z,95569
2018-02-17T07:15:13.606Z,95556
2018-02-17T07:17:41.678Z,95555
2018-02-17T07:20:09.745Z,95582
2018-02-17T07:22:37.869Z,95593
2018-02-17T07:25:05.964Z,95588
2018-02-17T07:27:34.858Z,95569
2018-02-17T07:30:03.002Z,95548
2018-02-17T07:32:31.118Z,95535
2018-02-17T07:35:00.031Z,95557
2018-02-17T07:37:28.115Z,95568
2018-02-17T07:39:56.229Z,95545
2018-02-17T07:42:24.406Z,95538
2018-02-17T07:44:52.475Z,95536
2018-02-17T07:47:20.575Z,95523
2018-02-17T07:49:48.630Z,95537
2018-02-17T07:52:16.683Z,95527
2018-02-17T07:54:44.752Z,95545
2018-02-17T07:57:12.830Z,95549
2018-02-17T07:59:41.568Z,95562
2018-02-17T08:02:09.641Z,95568
2018-02-17T08:04:37.809Z,95569
2018-02-17T08:07:05.862Z,95554
2018-02-17T08:09:33.930Z,95541
2018-02-17T08:12:02.047Z,95537
2018-02-17T08:14:30.123Z,95542
2018-02-17T08:16:58.178Z,95541
2018-02-17T08:19:26.250Z,95540
2018-02-17T08:21:54.362Z,95522
2018-02-17T08:24:22.430Z,95529
2018-02-17T08:26:53.141Z,95524
2018-02-17T08:29:21.226Z,95517
2018-02-17T08:31:49.309Z,95507
2018-02-17T08:34:17.490Z,95500
2018-02-17T08:36:45.658Z,95504
2018-02-17T08:39:13.734Z,95497
2018-02-17T08:41:42.051Z,95502
2018-02-17T08:44:10.110Z,95473
2018-02-17T08:46:38.186Z,95441
2018-02-17T08:49:06.246Z,95432
2018-02-17T08:51:34.330Z,95428
2018-02-17T08:54:02.390Z,95410
2018-02-17T08:56:30.863Z,95415
2018-02-17T08:58:58.920Z,95403
2018-02-17T09:01:27.767Z,95418
2018-02-17T09:03:55.826Z,95431
2018-02-17T09:06:23.890Z,95397
2018-02-17T09:08:52.506Z,95393
2018-02-17T09:11:20.574Z,95368
2018-02-17T09:13:48.766Z,95338
2018-02-17T09:16:16.829Z,95297
2018-02-17T09:18:45.497Z,95329
2018-02-17T09:21:13.615Z,95336
2018-02-17T09:23:42.409Z,95338
2018-02-17T09:26:10.469Z,95352
2018-02-17T09:28:38.521Z,95357
2018-02-17T09:31:07.451Z,95369
2018-02-17T09:33:35.514Z,95388
2018-02-17T09:36:03.601Z,95388
2018-02-17T09:38:31.654Z,95389
2018-02-17T09:40:59.782Z,95383
2018-02-17T09:43:28.606Z,95393
2018-02-17T09:45:56.666Z,95383
2018-02-17T09:48:24.726Z,95377
2018-02-17T09:50:53.547Z,95400
2018-02-17T09:53:21.650Z,95402
2018-02-17T09:55:49.842Z,95396
2018-02-17T09:58:18.068Z,95396
2018-02-17T10:00:46.902Z,95391
2018-02-17T10:03:14.998Z,95401
2018-02-17T10:05:43.050Z,95406
2018-02-17T10:08:11.122Z,95410
2018-02-17T10:10:39.185Z,95407
2018-02-17T10:13:07.291Z,95401
2018-02-17T10:15:35.338Z,95400
2018-02-17T10:18:03.406Z,95412
2018-02-17T10:20:32.243Z,95400
2018-02-17T10:23:00.328Z,95409
2018-02-17T10:25:28.391Z,95404
2018-02-17T10:27:56.462Z,95418
2018-02-17T10:30:24.519Z,95411
2018-02-17T10:32:52.692Z,95417
2018-02-17T10:35:20.798Z,95394
2018-02-17T10:37:48.863Z,95390
2018-02-17T10:40:17.165Z,95390
2018-02-17T10:42:45.213Z,95379
2018-02-17T10:45:13.277Z,95373
2018-02-17T10:47:41.407Z,95385
2018-02-17T10:50:09.484Z,95381
2018-02-17T10:52:37.559Z,95379
2018-02-17T10:55:05.627Z,95370
2018-02-17T10:57:33.699Z,95354
2018-02-17T11:00:01.782Z,95360
2018-02-17T11:02:29.951Z,95359
2018-02-17T11:04:58.035Z,95363
2018-02-17T11:07:26.214Z,95347
2018-02-17T11:09:54.286Z,95340
2018-02-17T11:12:22.458Z,95337
2018-02-17T11:14:50.538Z,95343
2018-02-17T11:17:18.625Z,95320
2018-02-17T11:19:46.675Z,95333
2018-02-17T11:22:14.733Z,95328
2018-02-17T11:24:43.763Z,95335
2018-02-17T11:27:12.066Z,95325
2018-02-17T11:29:40.130Z,95328
2018-02-17T11:32:08.214Z,95307
2018-02-17T11:34:36.426Z,95313
2018-02-17T11:37:05.261Z,95306
2018-02-17T11:39:33.310Z,95294
2018-02-17T11:42:01.387Z,95293
2018-02-17T11:44:29.447Z,95288
2018-02-17T11:46:58.287Z,95282
2018-02-17T11:49:26.340Z,95271
2018-02-17T11:51:54.432Z,95278
2018-02-17T11:54:22.475Z,95278
2018-02-17T11:56:50.628Z,95261
2018-02-17T11:59:19.449Z,95253
2018-02-17T12:01:47.628Z,95255
2018-02-17T12:04:15.760Z,95257
2018-02-17T12:06:44.253Z,95256
2018-02-17T12:09:12.416Z,95255
2018-02-17T12:11:40.466Z,95255
2018-02-17T12:14:08.534Z,95255
2018-02-17T12:16:36.586Z,95258
2018-02-17T12:19:05.439Z,95267
2018-02-17T12:21:33.494Z,95270
2018-02-17T12:24:02.098Z,95262
2018-02-17T12:26:30.161Z,95262
2018-02-17T12:28:58.226Z,95272
2018-02-17T12:31:26.328Z,95266
2018-02-17T12:33:54.395Z,95263
2018-02-17T12:36:22.446Z,95265
2018-02-17T12:38:51.174Z,95277
2018-02-17T12:41:19.247Z,95278
2018-02-17T12:43:47.415Z,95264
2018-02-17T12:46:15.466Z,95262
2018-02-17T12:48:44.650Z,95248
2018-02-17T12:51:13.706Z,95271
2018-02-17T12:53:41.878Z,95264
2018-02-17T12:56:09.934Z,95259
2018-02-17T12:58:38.033Z,95254
2018-02-17T13:01:06.094Z,95269
2018-02-17T13:03:34.186Z,95243
2018-02-17T13:06:02.908Z,95263
2018-02-17T13:08:31.731Z,95267
2018-02-17T13:10:59.795Z,95271
2018-02-17T13:13:28.644Z,95284
2018-02-17T13:15:56.710Z,95320
2018-02-17T13:18:24.790Z,95297
2018-02-17T13:20:52.873Z,95285
2018-02-17T13:23:20.940Z,95309
2018-02-17T13:25:48.997Z,95293
2018-02-17T13:28:26.615Z,95270
2018-02-17T13:30:54.680Z,95303
2018-02-17T13:33:22.756Z,95314
2018-02-17T13:35:50.807Z,95273
2018-02-17T13:38:18.880Z,95297
2018-02-17T13:40:46.938Z,95305
2018-02-17T13:43:15.499Z,95286
2018-02-17T13:45:46.182Z,95282
2018-02-17T13:48:15.386Z,95311
2018-02-17T13:50:43.448Z,95282
2018-02-17T13:53:12.297Z,95272
2018-02-17T13:55:40.368Z,95291
2018-02-17T13:58:08.562Z,95293
2018-02-17T14:00:38.125Z,95275
2018-02-17T14:03:06.194Z,95278
2018-02-17T14:05:34.253Z,95285
2018-02-17T14:08:03.118Z,95303
2018-02-17T14:10:31.182Z,95303
2018-02-17T14:12:59.365Z,95292
2018-02-17T14:15:27.422Z,95269
2018-02-17T14:17:55.514Z,95295
2018-02-17T14:20:23.582Z,95293
2018-02-17T14:22:52.479Z,95262
2018-02-17T14:25:20.551Z,95271
2018-02-17T14:27:48.634Z,95292
2018-02-17T14:30:16.706Z,95298
2018-02-17T14:32:44.834Z,95283
2018-02-17T14:35:13.658Z,95312
2018-02-17T14:37:41.726Z,95299
2018-02-17T14:40:09.837Z,95283
2018-02-17T14:42:37.908Z,95287
2018-02-17T14:45:05.973Z,95286
2018-02-17T14:47:34.060Z,95290
2018-02-17T14:50:02.179Z,95318
2018-02-17T14:52:30.999Z,95290
2018-02-17T14:54:59.151Z,95276
2018-02-17T14:57:28.579Z,95275
2018-02-17T14:59:56.654Z,95288
2018-02-17T15:02:24.767Z,95286
2018-02-17T15:04:52.830Z,95285
2018-02-17T15:07:20.886Z,95292
2018-02-17T15:09:49.655Z,95276
2018-02-17T15:12:18.483Z,95278
2018-02-17T15:14:46.790Z,95278
2018-02-17T15:17:14.866Z,95288
2018-02-17T15:19:42.953Z,95272
2018-02-17T15:22:11.003Z,95268
2018-02-17T15:24:39.098Z,95277
2018-02-17T15:27:07.138Z,95292
2018-02-17T15:29:35.210Z,95290
2018-02-17T15:32:03.270Z,95287
2018-02-17T15:34:32.111Z,95273
2018-02-17T15:37:00.195Z,95270
2018-02-17T15:39:28.264Z,95275
2018-02-17T15:41:56.318Z,95267
2018-02-17T15:44:24.382Z,95277
2018-02-17T15:46:52.446Z,95279
2018-02-17T15:49:20.536Z,95270
2018-02-17T15:51:48.590Z,95277
2018-02-17T15:54:17.239Z,95292
2018-02-17T15:56:45.279Z,95280
2018-02-17T15:59:13.347Z,95283
2018-02-17T16:01:41.458Z,95288
2018-02-17T16:04:09.527Z,95300
2018-02-17T16:06:37.582Z,95298
2018-02-17T16:09:05.658Z,95300
2018-02-17T16:11:33.727Z,95294
2018-02-17T16:14:02.538Z,95297
2018-02-17T16:16:30.590Z,95313
2018-02-17T16:18:58.647Z,95321
2018-02-17T16:21:27.474Z,95336
2018-02-17T16:23:55.582Z,95338
2018-02-17T16:26:23.628Z,95335
2018-02-17T16:28:52.374Z,95341
2018-02-17T16:31:20.907Z,95339
2018-02-17T16:33:49.008Z,95349
2018-02-17T16:36:17.723Z,95350
2018-02-17T16:38:45.796Z,95328
2018-02-17T16:41:13.852Z,95339
2018-02-17T16:43:41.914Z,95352
2018-02-17T16:46:09.978Z,95363
2018-02-17T16:48:38.042Z,95370
2018-02-17T16:51:06.099Z,95374
2018-02-17T16:53:34.159Z,95391
2018-02-17T16:56:02.225Z,95381
2018-02-17T16:58:30.297Z,95391
2018-02-17T17:00:58.350Z,95396
2018-02-17T17:03:26.442Z,95408
2018-02-17T17:05:54.518Z,95397
2018-02-17T17:08:22.583Z,95405
2018-02-17T17:10:50.655Z,95416
2018-02-17T17:13:18.718Z,95403
2018-02-17T17:15:46.783Z,95411
2018-02-17T17:18:15.484Z,95419
2018-02-17T17:20:43.595Z,95431
2018-02-17T17:23:11.658Z,95423
2018-02-17T17:25:39.731Z,95437
2018-02-17T17:28:07.801Z,95438
2018-02-17T17:30:35.890Z,95429
2018-02-17T17:33:03.951Z,95432
2018-02-17T17:35:32.040Z,95444
2018-02-17T17:38:00.090Z,95445
2018-02-17T17:40:28.202Z,95435
2018-02-17T17:42:56.291Z,95447
2018-02-17T17:45:24.359Z,95441
2018-02-17T17:47:52.774Z,95471
2018-02-17T17:50:21.701Z,95452
2018-02-17T17:52:49.791Z,95463
2018-02-17T17:55:19.394Z,95461
2018-02-17T17:57:48.608Z,95462
2018-02-17T18:00:16.698Z,95467
2018-02-17T18:02:44.767Z,95464
2018-02-17T18:05:12.823Z,95475
2018-02-17T18:07:40.934Z,95484
2018-02-17T18:10:09.014Z,95483
2018-02-17T18:12:37.076Z,95489
2018-02-17T18:15:05.158Z,95487
2018-02-17T18:17:33.243Z,95486
2018-02-17T18:20:01.314Z,95502
2018-02-17T18:22:29.557Z,95484
2018-02-17T18:24:57.614Z,95498
2018-02-17T18:27:26.468Z,95497
2018-02-17T18:29:54.536Z,95505
2018-02-17T18:32:22.655Z,95510
2018-02-17T18:34:50.686Z,95503
2018-02-17T18:37:19.324Z,95518
2018-02-17T18:39:49.266Z,95517
2018-02-17T18:42:17.335Z,95504
2018-02-17T18:44:45.398Z,95510
2018-02-17T18:47:14.222Z,95521
2018-02-17T18:49:42.294Z,95524
2018-02-17T18:52:10.363Z,95514
2018-02-17T18:54:38.470Z,95518
2018-02-17T18:57:06.550Z,95525
2018-02-17T18:59:34.646Z,95522
2018-02-17T19:02:02.718Z,95536
2018-02-17T19:04:30.790Z,95524
2018-02-17T19:06:59.620Z,95516
2018-02-17T19:09:29.265Z,95530
2018-02-17T19:11:57.333Z,95536
2018-02-17T19:14:25.409Z,95540
2018-02-17T19:16:53.549Z,95530
2018-02-17T19:19:22.411Z,95538
2018-02-17T19:21:50.481Z,95540
2018-02-17T19:24:19.674Z,95556
2018-02-17T19:26:47.730Z,95562
2018-02-17T19:29:15.821Z,95558
2018-02-17T19:31:43.894Z,95557
2018-02-17T19:34:11.954Z,95557
2018-02-17T19:36:40.064Z,95570
2018-02-17T19:39:08.138Z,95563
2018-02-17T19:41:36.289Z,95558
2018-02-17T19:44:04.343Z,95576
2018-02-17T19:46:33.180Z,95571
2018-02-17T19:49:01.238Z,95569
2018-02-17T19:51:29.351Z,95562
2018-02-17T19:53:57.488Z,95565
2018-02-17T19:56:25.562Z,95574
2018-02-17T19:58:53.617Z,95587
2018-02-17T20:01:22.454Z,95590
2018-02-17T20:03:50.516Z,95582
2018-02-17T20:06:18.603Z,95593
2018-02-17T20:08:46.662Z,95575
2018-02-17T20:11:14.777Z,95574
2018-02-17T20:13:42.915Z,95558
2018-02-17T20:16:11.755Z,95597
2018-02-17T20:18:39.811Z,95594
2018-02-17T20:21:07.890Z,95597
2018-02-17T20:23:35.960Z,95610
2018-02-17T20:26:04.022Z,95611
2018-02-17T20:28:32.130Z,95620
2018-02-17T20:31:00.202Z,95626
2018-02-17T20:33:28.386Z,95631
2018-02-17T20:35:56.467Z,95630
2018-02-17T20:38:24.634Z,95632
2018-02-17T20:40:52.819Z,95630
2018-02-17T20:43:20.941Z,95636
2018-02-17T20:45:50.890Z,95645
2018-02-17T20:48:18.953Z,95650
2018-02-17T20:50:47.029Z,95643
2018-02-17T20:53:15.080Z,95649
2018-02-17T20:55:43.915Z,95644
2018-02-17T20:58:11.967Z,95647
2018-02-17T21:00:40.027Z,95652
2018-02-17T21:03:08.855Z,95641
2018-02-17T21:05:37.013Z,95660
2018-02-17T21:08:05.029Z,95660
2018-02-17T21:10:33.105Z,95666
2018-02-17T21:13:01.196Z,95664
2018-02-17T21:15:29.279Z,95668
2018-02-17T21:17:57.341Z,95670
2018-02-17T21:20:25.517Z,95665
2018-02-17T21:22:53.578Z,95678
2018-02-17T21:25:21.666Z,95687
2018-02-17T21:27:49.721Z,95683
2018-02-17T21:30:17.797Z,95692
2018-02-17T21:32:45.858Z,95691
2018-02-17T21:35:13.968Z,95698
2018-02-17T21:37:42.050Z,95698
2018-02-17T21:40:10.122Z,95715
2018-02-17T21:42:38.203Z,95703
2018-02-17T21:45:06.370Z,95709
2018-02-17T21:47:34.426Z,95701
2018-02-17T21:50:02.500Z,95708
2018-02-17T21:52:30.607Z,95705
2018-02-17T21:54:58.786Z,95723
2018-02-17T21:57:26.881Z,95710
2018-02-17T21:59:54.937Z,95722
2018-02-17T22:02:23.006Z,95742
2018-02-17T22:04:53.650Z,95738
2018-02-17T22:07:22.658Z,95741
2018-02-17T22:09:51.839Z,95757
2018-02-17T22:12:19.901Z,95760
2018-02-17T22:14:47.978Z,95736
2018-02-17T22:17:16.055Z,95747
2018-02-17T22:19:44.130Z,95750
2018-02-17T22:22:12.218Z,95765
2018-02-17T22:24:40.281Z,95746
2018-02-17T22:27:08.382Z,95754
2018-02-17T22:29:36.471Z,95757
2018-02-17T22:32:05.309Z,95768
2018-02-17T22:34:34.126Z,95775
2018-02-17T22:37:02.189Z,95767
2018-02-17T22:39:30.298Z,95762
2018-02-17T22:41:58.363Z,95779
2018-02-17T22:44:26.419Z,95776
2018-02-17T22:46:54.509Z,95780
2018-02-17T22:49:22.575Z,95792
2018-02-17T22:51:50.637Z,95787
2018-02-17T22:54:18.690Z,95793
2018-02-17T22:56:47.526Z,95795
2018-02-17T22:59:15.585Z,95794
2018-02-17T23:01:43.671Z,95781
2018-02-17T23:04:11.742Z,95799
2018-02-17T23:06:39.866Z,95801
2018-02-17T23:09:07.934Z,95803
2018-02-17T23:11:36.102Z,95782
2018-02-17T23:14:04.186Z,95804
2018-02-17T23:16:32.254Z,95816
2018-02-17T23:19:00.319Z,95814
2018-02-17T23:21:28.398Z,95822
2018-02-17T23:23:56.458Z,95831
2018-02-17T23:26:24.538Z,95830
2018-02-17T23:28:54.144Z,95825
2018-02-17T23:31:22.602Z,95831
2018-02-17T23:33:50.655Z,95837
2018-02-17T23:36:18.824Z,95822
2018-02-17T23:38:46.894Z,95827
2018-02-17T23:41:14.971Z,95836
2018-02-17T23:43:43.042Z,95841
2018-02-17T23:46:11.112Z,95840
2018-02-17T23:48:39.197Z,95848
2018-02-17T23:51:07.274Z,95842
2018-02-17T23:53:36.115Z,95844
2018-02-17T23:56:04.946Z,95845
2018-02-17T23:58:33.015Z,95849
